Time;durP1;ratioP1;P1;durP2;ratioP2;P2;SDS_P1;SDS_P2;PMS_P1;PMS_P2;Temp;Humidity;BMP_temperature;BMP_pressure;BME280_temperature;BME280_humidity;BME280_pressure;Samples;Min_cycle;Max_cycle;Signal;HPM_P1;HPM_P2
2021/04/28 00:01:55;;;;;;;26.73;18.25;;;307.30;2252.80;;;;;;5133888;27;20380;-78
2021/04/28 00:04:21;;;;;;;25.83;19.77;;;307.40;2278.40;;;;;;5133472;27;20096;-77
2021/04/28 00:06:47;;;;;;;21.92;18.13;;;307.40;2252.80;;;;;;5133680;27;20487;-77
2021/04/28 00:09:13;;;;;;;26.52;18.88;;;307.50;2252.80;;;;;;5133293;27;20058;-78
2021/04/28 00:11:39;;;;;;;25.33;19.35;;;307.50;2227.20;;;;;;5134938;27;20023;-77
2021/04/28 00:14:07;;;;;;;22.60;18.50;;;307.50;2227.20;;;;;;5133521;27;20135;-78
2021/04/28 00:16:34;;;;;;;26.38;20.08;;;307.50;2252.80;;;;;;5133142;27;20151;-78
2021/04/28 00:19:00;;;;;;;24.70;20.38;;;307.40;2252.80;;;;;;5133472;27;20502;-78
2021/04/28 00:21:27;;;;;;;23.02;17.98;;;307.40;2304.00;;;;;;5132615;27;20054;-78
2021/04/28 00:23:53;;;;;;;28.80;20.65;;;307.40;2252.80;;;;;;5134550;27;20075;-77
2021/04/28 00:26:19;;;;;;;38.75;25.95;;;307.40;2278.40;;;;;;5134542;27;20027;-78
2021/04/28 00:28:45;;;;;;;41.63;25.95;;;307.50;2252.80;;;;;;5132467;27;20020;-77
2021/04/28 00:31:12;;;;;;;40.15;25.73;;;307.50;2201.60;;;;;;5133570;27;20024;-78
2021/04/28 00:33:38;;;;;;;29.58;22.30;;;307.40;2278.40;;;;;;5134665;27;20387;-78
2021/04/28 00:36:04;;;;;;;31.40;21.42;;;307.40;2304.00;;;;;;5132751;27;20035;-78
2021/04/28 00:38:30;;;;;;;30.02;20.77;;;307.30;2304.00;;;;;;5133245;27;20109;-78
2021/04/28 00:40:56;;;;;;;29.02;20.45;;;307.20;2304.00;;;;;;5134336;27;20102;-78
2021/04/28 00:43:25;;;;;;;24.73;19.60;;;307.20;2304.00;;;;;;5134654;27;20443;-78
2021/04/28 00:45:51;;;;;;;27.55;20.77;;;307.20;2304.00;;;;;;5134409;27;20019;-77
2021/04/28 00:48:17;;;;;;;28.08;20.25;;;307.20;2304.00;;;;;;5134114;27;20079;-78
2021/04/28 00:50:45;;;;;;;24.00;20.42;;;307.30;2304.00;;;;;;5133904;28;20055;-78
2021/04/28 00:53:17;;;;;;;24.85;19.48;;;307.20;2278.40;;;;;;5134374;27;20023;-77
2021/04/28 00:55:43;;;;;;;25.13;20.58;;;307.30;2304.00;;;;;;5134322;27;20032;-78
2021/04/28 00:58:09;;;;;;;26.50;19.33;;;307.40;2252.80;;;;;;5132435;28;20127;-77
2021/04/28 01:00:35;;;;;;;23.88;19.40;;;307.40;2278.40;;;;;;5132330;28;20126;-77
2021/04/28 01:03:02;;;;;;;24.63;20.60;;;307.30;2304.00;;;;;;5132474;27;20020;-78
2021/04/28 01:05:28;;;;;;;24.08;20.15;;;307.30;2278.40;;;;;;5131046;28;20038;-78
2021/04/28 01:07:54;;;;;;;24.48;20.77;;;307.30;2304.00;;;;;;5132044;28;20042;-77
2021/04/28 01:10:29;;;;;;;30.45;22.88;;;307.40;2304.00;;;;;;5132935;27;20042;-77
2021/04/28 01:12:56;;;;;;;26.98;21.20;;;307.40;2278.40;;;;;;5132918;28;20016;-79
2021/04/28 01:15:27;;;;;;;24.75;20.35;;;307.40;2278.40;;;;;;5134077;27;20048;-78
2021/04/28 01:17:53;;;;;;;23.17;20.10;;;307.50;2252.80;;;;;;5134174;27;20413;-79
2021/04/28 01:20:21;;;;;;;27.55;20.25;;;307.40;2252.80;;;;;;5132795;28;20111;-78
2021/04/28 01:22:49;;;;;;;26.30;20.70;;;307.40;2278.40;;;;;;5133936;27;20091;-78
2021/04/28 01:25:21;;;;;;;23.70;19.17;;;307.30;2278.40;;;;;;5134076;27;20040;-78
2021/04/28 01:28:16;;;;;;;25.63;19.92;;;307.30;2278.40;;;;;;5134265;27;20026;-79
2021/04/28 01:30:53;;;;;;;28.80;21.40;;;307.30;2304.00;;;;;;5115122;28;20033;-77
2021/04/28 01:33:33;;;;;;;25.98;21.45;;;307.30;2278.40;;;;;;5132654;28;20498;-78
2021/04/28 01:36:01;;;;;;;24.30;19.75;;;307.20;2304.00;;;;;;5132020;28;20027;-77
2021/04/28 01:38:32;;;;;;;28.42;22.30;;;307.20;2304.00;;;;;;5133946;27;20047;-77
2021/04/28 01:40:58;;;;;;;27.65;20.80;;;307.30;2278.40;;;;;;5137167;27;20090;-77
2021/04/28 01:43:25;;;;;;;28.80;21.23;;;307.30;2252.80;;;;;;5136449;27;20030;-78
2021/04/28 01:45:54;;;;;;;26.02;20.70;;;307.30;2304.00;;;;;;5137645;27;20039;-77
2021/04/28 01:48:21;;;;;;;25.70;20.70;;;307.30;2304.00;;;;;;5136375;27;20019;-77
2021/04/28 01:50:49;;;;;;;26.27;21.83;;;307.30;2304.00;;;;;;5137478;27;20051;-77
2021/04/28 01:53:21;;;;;;;26.30;20.40;;;307.30;2304.00;;;;;;5136852;27;20030;-77
2021/04/28 01:55:49;;;;;;;28.08;22.58;;;307.20;2304.00;;;;;;5137485;27;20102;-77
2021/04/28 01:58:17;;;;;;;26.52;21.30;;;307.30;2304.00;;;;;;5135865;27;20031;-77
2021/04/28 02:00:44;;;;;;;34.28;22.27;;;307.30;2304.00;;;;;;5136152;27;20080;-77
2021/04/28 02:03:10;;;;;;;32.45;23.23;;;307.30;2304.00;;;;;;5137357;27;20019;-77
2021/04/28 02:05:35;;;;;;;32.90;22.92;;;307.30;2304.00;;;;;;5136402;27;20027;-77
2021/04/28 02:08:02;;;;;;;32.83;22.73;;;307.30;2304.00;;;;;;5136330;27;20027;-77
2021/04/28 02:10:28;;;;;;;27.20;21.63;;;307.30;2304.00;;;;;;5134696;27;20023;-77
2021/04/28 02:12:54;;;;;;;25.00;20.80;;;307.30;2304.00;;;;;;5136695;27;20463;-77
2021/04/28 02:15:23;;;;;;;24.90;20.58;;;307.30;2304.00;;;;;;5135721;27;20030;-77
2021/04/28 02:17:55;;;;;;;27.25;20.17;;;307.30;2304.00;;;;;;5135574;27;20032;-78
2021/04/28 02:20:23;;;;;;;28.33;20.52;;;307.30;2304.00;;;;;;5137041;27;20019;-77
2021/04/28 02:22:49;;;;;;;25.00;21.70;;;307.20;2304.00;;;;;;5137384;27;20100;-77
2021/04/28 02:25:15;;;;;;;23.90;19.48;;;307.30;2304.00;;;;;;5137031;27;20145;-78
2021/04/28 02:27:41;;;;;;;27.55;22.85;;;307.40;2278.40;;;;;;5136961;27;20102;-78
2021/04/28 02:30:13;;;;;;;30.95;21.85;;;307.40;2304.00;;;;;;5136877;27;20019;-78
2021/04/28 02:32:39;;;;;;;28.33;22.13;;;307.50;2252.80;;;;;;5136789;27;20023;-77
2021/04/28 02:35:06;;;;;;;27.92;22.35;;;307.60;2227.20;;;;;;5135986;27;20023;-76
2021/04/28 02:37:32;;;;;;;28.02;21.83;;;307.60;2278.40;;;;;;5136648;27;20023;-78
2021/04/28 02:40:10;;;;;;;27.83;21.02;;;307.40;2304.00;;;;;;5135457;27;20110;-78
2021/04/28 02:42:36;;;;;;;25.70;20.45;;;307.40;2304.00;;;;;;5136827;27;20027;-78
2021/04/28 02:45:05;;;;;;;24.63;20.75;;;307.30;2304.00;;;;;;5136609;27;20022;-78
2021/04/28 02:47:33;;;;;;;24.58;21.25;;;307.30;2304.00;;;;;;5136545;27;20043;-78
2021/04/28 02:50:00;;;;;;;26.40;20.33;;;307.20;2304.00;;;;;;5135916;27;20047;-77
2021/04/28 02:52:29;;;;;;;24.35;19.55;;;307.30;2304.00;;;;;;5136714;27;20476;-77
2021/04/28 02:54:56;;;;;;;25.20;20.63;;;307.20;2304.00;;;;;;5135172;27;20016;-78
2021/04/28 02:57:22;;;;;;;23.27;18.67;;;307.30;2278.40;;;;;;5134690;27;20038;-79
2021/04/28 02:59:50;;;;;;;24.10;19.17;;;307.30;2304.00;;;;;;5136258;27;20545;-78
2021/04/28 03:02:16;;;;;;;21.92;18.58;;;307.30;2278.40;;;;;;5136442;27;20114;-78
2021/04/28 03:04:43;;;;;;;26.80;19.13;;;307.30;2278.40;;;;;;5134956;27;20027;-78
2021/04/28 03:07:18;;;;;;;21.48;16.83;;;307.30;2278.40;;;;;;5136202;27;20044;-77
2021/04/28 03:09:44;;;;;;;26.38;18.80;;;307.30;2252.80;;;;;;5134447;27;20024;-77
2021/04/28 03:12:12;;;;;;;27.27;19.10;;;307.30;2252.80;;;;;;5134731;27;20020;-78
2021/04/28 03:14:39;;;;;;;29.33;21.33;;;307.20;2252.80;;;;;;5134972;27;20034;-77
2021/04/28 03:17:05;;;;;;;30.60;18.92;;;307.20;2252.80;;;;;;5135339;27;20226;-77
2021/04/28 03:19:31;;;;;;;21.95;17.00;;;307.20;2252.80;;;;;;5135825;27;20070;-77
2021/04/28 03:21:57;;;;;;;20.35;15.55;;;282.50;2227.20;;;;;;5134551;27;20511;-77
2021/04/28 03:24:23;;;;;;;21.85;16.27;;;282.50;2227.20;;;;;;5135886;27;20023;-77
2021/04/28 03:26:55;;;;;;;20.33;17.05;;;307.20;2227.20;;;;;;5135762;27;20516;-77
2021/04/28 03:29:21;;;;;;;19.73;17.23;;;307.20;2227.20;;;;;;5134059;27;20038;-78
2021/04/28 03:31:47;;;;;;;19.95;17.33;;;307.20;2227.20;;;;;;5133991;27;20031;-79
2021/04/28 03:34:13;;;;;;;22.42;18.20;;;307.20;2252.80;;;;;;5134340;27;20567;-78
2021/04/28 03:36:39;;;;;;;20.15;15.35;;;282.50;2201.60;;;;;;5134337;27;20052;-78
2021/04/28 03:39:10;;;;;;;22.23;15.80;;;307.20;2227.20;;;;;;5135789;27;20101;-78
2021/04/28 03:41:36;;;;;;;20.77;15.38;;;307.30;2201.60;;;;;;5134165;27;20022;-78
2021/04/28 03:44:02;;;;;;;19.75;15.73;;;307.30;2201.60;;;;;;5135753;27;20426;-78
2021/04/28 03:46:28;;;;;;;21.33;16.90;;;307.40;2201.60;;;;;;5135679;27;20098;-78
2021/04/28 03:48:53;;;;;;;21.02;16.98;;;307.30;2227.20;;;;;;5134043;27;20499;-79
2021/04/28 03:51:21;;;;;;;22.33;17.75;;;307.30;2252.80;;;;;;5133865;27;20043;-78
2021/04/28 03:53:47;;;;;;;27.17;19.90;;;307.30;2227.20;;;;;;5134425;27;20019;-79
2021/04/28 03:56:13;;;;;;;29.55;20.92;;;307.20;2252.80;;;;;;5134315;27;20027;-78
2021/04/28 03:58:39;;;;;;;35.42;22.90;;;282.50;2252.80;;;;;;5134638;27;20072;-78
2021/04/28 04:01:04;;;;;;;36.80;23.52;;;282.50;2252.80;;;;;;5132961;27;20042;-78
2021/04/28 04:03:30;;;;;;;32.78;23.63;;;282.50;2252.80;;;;;;5134479;27;20468;-78
2021/04/28 04:05:56;;;;;;;28.38;19.60;;;282.50;2252.80;;;;;;5133506;27;20027;-78
2021/04/28 04:08:21;;;;;;;23.05;17.83;;;282.50;2227.20;;;;;;5134828;27;20019;-78
2021/04/28 04:10:47;;;;;;;19.30;15.35;;;282.50;2227.20;;;;;;5135072;27;20022;-77
2021/04/28 04:13:13;;;;;;;25.55;16.33;;;307.20;2227.20;;;;;;5133287;27;20153;-77
2021/04/28 04:15:38;;;;;;;17.42;15.45;;;282.50;2227.20;;;;;;5133600;27;20063;-77
2021/04/28 04:18:04;;;;;;;20.95;16.20;;;307.20;2227.20;;;;;;5134784;27;20023;-77
2021/04/28 04:20:30;;;;;;;18.23;16.08;;;307.20;2252.80;;;;;;5134739;27;20479;-77
2021/04/28 04:22:56;;;;;;;22.27;15.88;;;307.20;2227.20;;;;;;5134758;27;20026;-77
2021/04/28 04:25:22;;;;;;;19.27;15.07;;;307.20;2227.20;;;;;;5133416;27;20027;-77
2021/04/28 04:27:47;;;;;;;27.83;18.45;;;307.20;2227.20;;;;;;5136851;27;20015;-78
2021/04/28 04:30:13;;;;;;;23.35;16.88;;;307.30;2227.20;;;;;;5135011;27;20026;-77
2021/04/28 04:32:39;;;;;;;20.08;16.83;;;307.20;2252.80;;;;;;5134478;27;20027;-77
2021/04/28 04:35:06;;;;;;;19.40;15.65;;;307.30;2227.20;;;;;;5133267;27;20030;-77
2021/04/28 04:37:31;;;;;;;16.33;13.80;;;307.30;2227.20;;;;;;5134523;27;20034;-77
2021/04/28 04:39:57;;;;;;;18.02;14.73;;;307.30;2227.20;;;;;;5133187;27;20023;-77
2021/04/28 04:42:24;;;;;;;18.67;13.48;;;307.30;2227.20;;;;;;5134192;27;20117;-77
2021/04/28 04:44:50;;;;;;;19.23;14.23;;;307.30;2227.20;;;;;;5134390;27;20027;-77
2021/04/28 04:47:16;;;;;;;18.17;14.40;;;307.30;2201.60;;;;;;5133116;27;20033;-77
2021/04/28 04:49:43;;;;;;;17.52;12.90;;;307.40;2227.20;;;;;;5134438;27;20028;-77
2021/04/28 04:52:09;;;;;;;16.52;12.90;;;307.40;2201.60;;;;;;5134124;27;20483;-77
2021/04/28 04:54:35;;;;;;;15.85;12.77;;;307.40;2227.20;;;;;;5134381;27;20491;-78
2021/04/28 04:57:01;;;;;;;15.50;12.45;;;307.40;2227.20;;;;;;5138366;27;20027;-78
2021/04/28 04:59:27;;;;;;;15.45;13.10;;;307.40;2227.20;;;;;;5134346;27;20376;-78
2021/04/28 05:01:52;;;;;;;18.45;13.38;;;307.40;2227.20;;;;;;5132542;28;20051;-78
2021/04/28 05:04:18;;;;;;;24.23;17.30;;;307.50;2227.20;;;;;;5132853;28;20381;-78
2021/04/28 05:06:44;;;;;;;41.63;24.20;;;307.50;2227.20;;;;;;5132631;28;20031;-78
2021/04/28 05:09:10;;;;;;;90.60;43.72;;;307.50;2227.20;;;;;;5132422;28;20031;-78
2021/04/28 05:11:36;;;;;;;112.50;60.08;;;307.50;2227.20;;;;;;5132219;28;20484;-78
2021/04/28 05:14:02;;;;;;;79.47;49.30;;;307.50;2227.20;;;;;;5136166;27;20031;-78
2021/04/28 05:16:29;;;;;;;46.95;34.17;;;307.50;2227.20;;;;;;5138329;27;20027;-78
2021/04/28 05:18:55;;;;;;;24.90;20.65;;;307.60;2227.20;;;;;;5138326;27;20669;-78
2021/04/28 05:21:21;;;;;;;27.98;23.58;;;307.60;2252.80;;;;;;5136741;27;20048;-78
2021/04/28 05:23:46;;;;;;;34.13;26.50;;;307.70;2252.80;;;;;;5137667;27;20023;-77
2021/04/28 05:26:12;;;;;;;30.27;23.45;;;307.70;2252.80;;;;;;5136821;27;20027;-78
2021/04/28 05:28:38;;;;;;;26.58;19.80;;;307.60;2227.20;;;;;;5137844;27;20020;-78
2021/04/28 05:31:04;;;;;;;19.73;14.40;;;307.70;2227.20;;;;;;5139477;27;20023;-78
2021/04/28 05:33:30;;;;;;;18.08;13.27;;;307.70;2227.20;;;;;;5137905;27;20102;-80
2021/04/28 05:35:55;;;;;;;16.15;12.75;;;307.70;2252.80;;;;;;5138036;27;20019;-77
2021/04/28 05:38:21;;;;;;;20.13;15.25;;;307.70;2252.80;;;;;;5136021;27;20042;-78
2021/04/28 05:40:47;;;;;;;19.77;12.98;;;307.70;2252.80;;;;;;5137303;27;20406;-77
2021/04/28 05:43:13;;;;;;;15.73;12.63;;;307.70;2278.40;;;;;;5137888;27;20098;-77
2021/04/28 05:45:43;;;;;;;21.25;15.68;;;307.60;2278.40;;;;;;5137823;27;20015;-78
2021/04/28 05:48:14;;;;;;;22.10;14.88;;;307.70;2278.40;;;;;;5136251;27;20027;-77
2021/04/28 05:50:42;;;;;;;18.25;14.43;;;307.70;2278.40;;;;;;5136251;27;20130;-78
2021/04/28 05:53:08;;;;;;;31.05;17.58;;;307.80;2252.80;;;;;;5136316;27;20019;-77
2021/04/28 05:55:35;;;;;;;35.75;21.17;;;307.80;2278.40;;;;;;5137382;27;20141;-77
2021/04/28 05:58:01;;;;;;;32.22;20.25;;;307.70;2278.40;;;;;;5137472;27;20011;-78
2021/04/28 06:00:27;;;;;;;21.90;16.27;;;307.80;2278.40;;;;;;5137160;27;20015;-78
2021/04/28 06:02:53;;;;;;;21.15;14.00;;;307.80;2278.40;;;;;;5135702;27;20396;-78
2021/04/28 06:05:20;;;;;;;22.90;15.80;;;307.80;2304.00;;;;;;5136952;27;20480;-81
2021/04/28 06:07:46;;;;;;;60.95;20.50;;;307.80;2278.40;;;;;;5136754;27;20130;-80
2021/04/28 06:10:13;;;;;;;35.15;18.83;;;307.90;2304.00;;;;;;5136131;27;20369;-73
2021/04/28 06:12:41;;;;;;;48.10;18.95;;;307.90;2304.00;;;;;;5137289;27;20015;-78
2021/04/28 06:15:10;;;;;;;34.90;20.85;;;308.00;2304.00;;;;;;5137346;27;20099;-80
2021/04/28 06:17:36;;;;;;;37.38;20.35;;;308.00;2304.00;;;;;;5137466;27;20030;-77
2021/04/28 06:20:07;;;;;;;197.95;32.97;;;308.10;2278.40;;;;;;5135885;27;20451;-77
2021/04/28 06:22:33;;;;;;;31.88;15.82;;;332.80;2304.00;;;;;;5135701;27;20047;-77
2021/04/28 06:24:58;;;;;;;34.42;16.45;;;332.80;2304.00;;;;;;5136306;27;20488;-75
2021/04/28 06:27:24;;;;;;;55.47;19.83;;;332.90;2278.40;;;;;;5136897;27;20023;-74
2021/04/28 06:29:51;;;;;;;62.90;19.35;;;332.90;2304.00;;;;;;5135582;27;20031;-78
2021/04/28 06:32:16;;;;;;;39.15;16.27;;;333.10;2329.60;;;;;;5136877;27;20061;-78
2021/04/28 06:34:42;;;;;;;52.33;18.77;;;333.40;2304.00;;;;;;5137245;27;20050;-78
2021/04/28 06:37:08;;;;;;;24.10;17.75;;;333.50;2278.40;;;;;;5135601;27;20488;-78
2021/04/28 06:39:33;;;;;;;869.67;91.55;;;333.30;2304.00;;;;;;5136467;27;20023;-74
2021/04/28 06:41:59;;;;;;;82.97;24.98;;;333.40;2329.60;;;;;;5136497;27;20026;-74
2021/04/28 06:44:25;;;;;;;36.10;22.77;;;333.40;2329.60;;;;;;5135697;27;20057;-74
2021/04/28 06:46:50;;;;;;;33.15;21.52;;;333.40;2329.60;;;;;;5133901;27;20031;-74
2021/04/28 06:49:16;;;;;;;31.70;23.17;;;333.30;2329.60;;;;;;5135607;27;20357;-74
2021/04/28 06:51:42;;;;;;;29.25;22.98;;;333.30;2329.60;;;;;;5135496;27;20055;-74
2021/04/28 06:54:08;;;;;;;29.58;21.50;;;333.30;2329.60;;;;;;5136472;27;20031;-74
2021/04/28 06:56:34;;;;;;;26.27;21.38;;;333.30;2329.60;;;;;;5136631;27;20031;-74
2021/04/28 06:59:00;;;;;;;28.20;20.73;;;333.30;2329.60;;;;;;5136271;27;20491;-74
2021/04/28 07:01:26;;;;;;;32.92;24.80;;;333.20;2329.60;;;;;;5134908;27;20102;-73
2021/04/28 07:03:52;;;;;;;35.88;24.02;;;333.20;2329.60;;;;;;5134580;27;20062;-73
2021/04/28 07:06:18;;;;;;;29.40;24.02;;;333.20;2329.60;;;;;;5146077;27;20498;-74
2021/04/28 07:08:44;;;;;;;26.90;21.98;;;333.20;2329.60;;;;;;5139709;27;20043;-74
2021/04/28 07:11:10;;;;;;;30.65;22.25;;;333.30;2329.60;;;;;;5135996;27;20027;-75
2021/04/28 07:13:36;;;;;;;28.75;23.08;;;333.20;2329.60;;;;;;5136354;27;20379;-74
2021/04/28 07:16:02;;;;;;;30.73;23.25;;;333.30;2329.60;;;;;;5136037;27;20057;-75
2021/04/28 07:18:28;;;;;;;31.40;23.50;;;333.30;2329.60;;;;;;5136173;27;20051;-74
2021/04/28 07:20:53;;;;;;;26.90;22.33;;;333.30;2329.60;;;;;;5135897;27;20058;-76
2021/04/28 07:23:19;;;;;;;35.22;26.38;;;333.30;2329.60;;;;;;5135775;27;20023;-74
2021/04/28 07:25:45;;;;;;;33.85;24.30;;;333.30;2329.60;;;;;;5133978;27;20023;-74
2021/04/28 07:28:11;;;;;;;31.00;22.75;;;333.40;2329.60;;;;;;5134382;27;20392;-74
2021/04/28 07:30:37;;;;;;;31.88;24.95;;;333.40;2329.60;;;;;;5135113;27;20079;-74
2021/04/28 07:33:03;;;;;;;31.33;23.83;;;333.40;2329.60;;;;;;5135494;27;20019;-75
2021/04/28 07:35:29;;;;;;;33.83;26.00;;;333.50;2329.60;;;;;;5135229;27;20023;-74
2021/04/28 07:37:55;;;;;;;26.27;23.05;;;333.50;2329.60;;;;;;5133721;27;20161;-74
2021/04/28 07:40:22;;;;;;;27.42;22.08;;;333.60;2329.60;;;;;;5134513;27;20023;-74
2021/04/28 07:42:49;;;;;;;26.10;21.27;;;333.70;2329.60;;;;;;5133335;27;20035;-75
2021/04/28 07:45:15;;;;;;;25.77;19.90;;;333.70;2329.60;;;;;;5135488;27;20027;-74
2021/04/28 07:47:42;;;;;;;25.90;21.58;;;358.40;2329.60;;;;;;5135251;27;20027;-73
2021/04/28 07:50:08;;;;;;;28.88;20.92;;;358.40;2329.60;;;;;;5135179;27;20050;-74
2021/04/28 07:52:34;;;;;;;32.35;23.67;;;358.50;2329.60;;;;;;5135644;27;20023;-74
2021/04/28 07:55:00;;;;;;;34.83;26.08;;;358.50;2329.60;;;;;;5133788;27;20063;-74
2021/04/28 07:57:26;;;;;;;31.95;18.50;;;358.50;2329.60;;;;;;5135376;27;20039;-74
2021/04/28 07:59:51;;;;;;;29.27;22.08;;;358.60;2329.60;;;;;;5135140;27;20541;-74
2021/04/28 08:02:17;;;;;;;29.95;22.08;;;358.60;2304.00;;;;;;5134987;27;20045;-74
2021/04/28 08:28:02;;;;;;;15.73;11.88;;;333.70;2278.40;;;;;;5131491;27;20371;-74
2021/04/28 08:30:28;;;;;;;16.70;12.05;;;359.10;2176.00;;;;;;5131343;27;20026;-74
2021/04/28 08:32:53;;;;;;;11.88;10.63;;;359.10;2176.00;;;;;;5131303;27;20028;-74
2021/04/28 08:35:19;;;;;;;25.25;15.73;;;359.00;2176.00;;;;;;5131269;28;20022;-74
2021/04/28 08:37:47;;;;;;;33.65;19.33;;;359.00;2176.00;;;;;;5131321;28;20095;-74
2021/04/28 08:40:15;;;;;;;33.05;17.75;;;359.10;2176.00;;;;;;5131343;27;20076;-74
2021/04/28 08:42:41;;;;;;;21.33;15.23;;;359.10;2176.00;;;;;;5129840;28;20368;-74
2021/04/28 08:45:08;;;;;;;19.33;15.07;;;359.00;2176.00;;;;;;5147208;27;20080;-77
2021/04/28 08:47:34;;;;;;;25.58;20.00;;;359.00;2201.60;;;;;;5129667;28;20045;-74
2021/04/28 08:50:00;;;;;;;20.20;15.65;;;359.10;2201.60;;;;;;5130320;27;20098;-76
2021/04/28 08:52:26;;;;;;;19.15;13.38;;;359.10;2201.60;;;;;;5130883;27;20527;-74
2021/04/28 08:54:52;;;;;;;18.02;14.25;;;359.20;2227.20;;;;;;5129042;28;20399;-74
2021/04/28 08:57:19;;;;;;;24.38;16.73;;;359.20;2227.20;;;;;;5131041;27;20026;-74
2021/04/28 08:59:46;;;;;;;18.52;16.52;;;359.30;2278.40;;;;;;5131203;27;20419;-74
2021/04/28 09:02:24;;;;;;;26.52;17.30;;;359.30;2201.60;;;;;;5131091;27;20020;-74
2021/04/28 09:05:10;;;;;;;20.65;14.80;;;359.30;2227.20;;;;;;5129633;28;20055;-75
2021/04/28 09:07:38;;;;;;;19.42;13.10;;;384.00;2227.20;;;;;;5130958;27;20047;-75
2021/04/28 09:10:07;;;;;;;21.15;15.93;;;384.10;2201.60;;;;;;5130873;27;20477;-75
2021/04/28 09:12:33;;;;;;;15.40;12.48;;;384.20;2176.00;;;;;;5130669;27;20490;-74
2021/04/28 09:14:59;;;;;;;13.10;11.60;;;384.20;2176.00;;;;;;5129028;28;20042;-74
2021/04/28 09:17:25;;;;;;;19.10;13.57;;;384.30;2150.40;;;;;;5130663;28;20023;-74
2021/04/28 09:20:11;;;;;;;20.42;13.15;;;384.30;2150.40;;;;;;5129150;28;20380;-74
2021/04/28 09:22:36;;;;;;;22.95;12.73;;;384.30;2150.40;;;;;;5128433;27;20039;-75
2021/04/28 09:25:02;;;;;;;12.88;11.65;;;384.30;2150.40;;;;;;5130483;27;20019;-74
2021/04/28 09:27:37;;;;;;;20.52;16.08;;;384.30;2150.40;;;;;;5124915;28;20048;-73
2021/04/28 09:30:08;;;;;;;16.45;13.55;;;384.30;2150.40;;;;;;5115980;28;20106;-74
2021/04/28 09:32:38;;;;;;;16.58;14.00;;;384.30;2176.00;;;;;;5115864;28;20026;-74
2021/04/28 09:35:18;;;;;;;19.02;13.30;;;384.20;2176.00;;;;;;5116302;28;20031;-74
2021/04/28 09:37:54;;;;;;;20.52;15.00;;;384.20;2176.00;;;;;;5105221;28;20028;-75
2021/04/28 09:40:21;;;;;;;10.98;9.75;;;384.20;2150.40;;;;;;5096086;28;20048;-76
2021/04/28 09:42:58;;;;;;;10.45;9.35;;;384.30;2124.80;;;;;;5094600;28;20017;-74
2021/04/28 09:45:46;;;;;;;14.52;8.70;;;384.30;2124.80;;;;;;5111746;28;20445;-74
2021/04/28 09:48:18;;;;;;;13.95;8.90;;;384.20;2124.80;;;;;;5101310;28;20023;-74
2021/04/28 09:50:45;;;;;;;12.65;10.27;;;384.30;2124.80;;;;;;5116347;28;20030;-74
2021/04/28 09:53:31;;;;;;;11.23;10.07;;;384.30;2150.40;;;;;;5114329;28;20504;-73
2021/04/28 09:55:57;;;;;;;11.60;9.77;;;384.30;2176.00;;;;;;5115751;28;20126;-73
2021/04/28 09:58:52;;;;;;;11.90;9.07;;;384.30;2150.40;;;;;;5116093;28;20376;-73
2021/04/28 10:01:39;;;;;;;11.10;9.68;;;384.40;2150.40;;;;;;5114852;28;20008;-74
2021/04/28 10:04:07;;;;;;;13.88;11.98;;;384.40;2124.80;;;;;;5116131;28;20043;-74
2021/04/28 10:06:47;;;;;;;14.32;11.27;;;384.40;2124.80;;;;;;5114074;28;20511;-74
2021/04/28 10:09:34;;;;;;;21.17;15.20;;;384.40;2124.80;;;;;;5114305;28;20043;-75
2021/04/28 10:12:12;;;;;;;30.08;19.17;;;384.50;2124.80;;;;;;5115963;28;20264;-74
2021/04/28 10:14:38;;;;;;;38.20;21.77;;;384.50;2150.40;;;;;;5114860;28;20489;-74
2021/04/28 10:17:06;;;;;;;30.83;20.17;;;384.50;2099.20;;;;;;5114411;28;20031;-74
2021/04/28 10:19:34;;;;;;;17.52;12.35;;;384.50;2099.20;;;;;;5113748;28;20488;-75
2021/04/28 10:22:04;;;;;;;21.33;14.15;;;384.40;2073.60;;;;;;5115137;28;20016;-75
2021/04/28 10:24:31;;;;;;;29.35;18.25;;;384.40;2073.60;;;;;;5114399;28;20092;-74
2021/04/28 10:26:57;;;;;;;28.13;19.25;;;384.40;2073.60;;;;;;5115838;28;20043;-73
2021/04/28 10:29:24;;;;;;;31.92;19.48;;;384.40;2073.60;;;;;;5115554;28;20091;-74
2021/04/28 10:31:51;;;;;;;14.55;12.35;;;384.50;2073.60;;;;;;5114028;28;20040;-73
2021/04/28 10:35:16;;;;;;;13.80;10.60;;;384.50;2073.60;;;;;;5114154;28;20031;-74
2021/04/28 10:37:45;;;;;;;10.93;9.80;;;384.50;2099.20;;;;;;5032138;28;20041;-74
2021/04/28 10:40:14;;;;;;;9.57;8.67;;;384.60;2099.20;;;;;;5015188;28;20021;-75
2021/04/28 10:42:40;;;;;;;13.40;11.00;;;384.60;2099.20;;;;;;5074331;28;20264;-75
2021/04/28 10:45:10;;;;;;;14.13;10.38;;;384.70;2099.20;;;;;;5115186;28;20102;-74
2021/04/28 10:47:55;;;;;;;13.88;10.15;;;384.80;2073.60;;;;;;5115232;28;20024;-75
2021/04/28 10:50:34;;;;;;;13.27;10.32;;;384.80;2099.20;;;;;;5114052;28;20476;-73
2021/04/28 10:53:03;;;;;;;16.40;12.38;;;384.80;2099.20;;;;;;5114551;28;20035;-74
2021/04/28 10:55:57;;;;;;;14.70;12.65;;;384.90;2099.20;;;;;;5114967;28;20054;-75
2021/04/28 10:58:26;;;;;;;23.05;15.48;;;384.90;2124.80;;;;;;5113066;28;20031;-75
2021/04/28 11:01:01;;;;;;;14.70;13.05;;;384.90;2124.80;;;;;;5114105;28;20468;-74
2021/04/28 11:03:41;;;;;;;13.05;11.68;;;384.90;2099.20;;;;;;5113430;28;20539;-75
2021/04/28 11:06:19;;;;;;;;;;;409.60;2124.80;;;;;;5113537;28;20031;-75
2021/04/28 11:08:46;;;;;;;12.48;9.48;;;409.60;2124.80;;;;;;5114780;28;20123;-74
2021/04/28 11:11:42;;;;;;;10.68;9.20;;;409.60;2124.80;;;;;;5113597;28;20065;-74
2021/04/28 11:14:11;;;;;;;12.50;10.25;;;409.60;2099.20;;;;;;5102315;28;20039;-77
2021/04/28 11:16:50;;;;;;;10.25;9.05;;;409.70;2124.80;;;;;;5114959;28;20030;-74
2021/04/28 11:19:19;;;;;;;10.90;9.23;;;409.70;2124.80;;;;;;5112968;28;20053;-74
2021/04/28 11:21:46;;;;;;;10.77;8.32;;;409.70;2124.80;;;;;;5113956;28;20012;-74
2021/04/28 11:24:12;;;;;;;18.45;11.93;;;409.80;2124.80;;;;;;5115068;28;20112;-74
2021/04/28 11:26:52;;;;;;;12.05;10.15;;;409.80;2124.80;;;;;;5112891;28;20409;-73
2021/04/28 11:29:19;;;;;;;13.85;10.38;;;409.90;2124.80;;;;;;5114411;28;20099;-73
2021/04/28 11:31:51;;;;;;;13.35;9.63;;;409.90;2124.80;;;;;;5112770;28;20477;-74
2021/04/28 11:34:34;;;;;;;18.55;10.00;;;410.00;2099.20;;;;;;5113070;28;20072;-74
2021/04/28 11:37:03;;;;;;;34.63;18.65;;;410.10;2124.80;;;;;;5112254;28;20031;-73
2021/04/28 11:39:42;;;;;;;41.38;23.77;;;410.20;2099.20;;;;;;5112922;28;20023;-73
2021/04/28 11:42:34;;;;;;;39.35;18.02;;;410.20;2073.60;;;;;;5111914;28;20549;-73
2021/04/28 11:45:00;;;;;;;21.05;13.55;;;410.20;2073.60;;;;;;5109481;28;20092;-74
2021/04/28 11:47:30;;;;;;;14.52;10.82;;;410.20;2073.60;;;;;;5129684;27;20035;-74
2021/04/28 11:49:56;;;;;;;18.70;13.60;;;410.20;2048.00;;;;;;5112939;28;20023;-74
2021/04/28 11:52:24;;;;;;;20.75;14.20;;;410.20;2048.00;;;;;;5094519;28;20024;-74
2021/04/28 11:54:59;;;;;;;21.05;14.15;;;410.30;2048.00;;;;;;5092319;28;20125;-74
2021/04/28 11:57:31;;;;;;;23.83;15.65;;;410.30;2048.00;;;;;;5093486;28;20020;-74
2021/04/28 12:00:09;;;;;;;20.65;14.18;;;410.20;2048.00;;;;;;5093669;28;20025;-73
2021/04/28 12:02:35;;;;;;;21.20;14.95;;;410.20;2048.00;;;;;;5093602;28;20366;-73
2021/04/28 12:05:02;;;;;;;19.30;12.35;;;410.20;2073.60;;;;;;5092189;28;20035;-74
2021/04/28 12:07:28;;;;;;;12.35;11.05;;;410.20;2073.60;;;;;;5091768;28;20032;-74
2021/04/28 12:09:54;;;;;;;11.68;10.48;;;410.30;2022.40;;;;;;5093790;28;20034;-74
2021/04/28 12:12:34;;;;;;;19.65;13.10;;;410.40;2022.40;;;;;;5092653;28;20024;-74
2021/04/28 12:15:06;;;;;;;20.17;14.10;;;410.40;2048.00;;;;;;5091920;28;20064;-75
2021/04/28 12:17:42;;;;;;;15.52;11.73;;;410.40;2048.00;;;;;;5093206;28;20101;-74
2021/04/28 12:20:18;;;;;;;31.75;16.20;;;410.40;2048.00;;;;;;5092714;28;20028;-74
2021/04/28 12:22:45;;;;;;;13.20;11.20;;;410.50;2048.00;;;;;;5091979;28;20024;-74
2021/04/28 12:25:14;;;;;;;14.48;12.95;;;410.50;2022.40;;;;;;5092957;28;20095;-75
2021/04/28 12:27:42;;;;;;;16.65;12.93;;;435.20;2073.60;;;;;;5092244;28;20044;-75
2021/04/28 12:30:10;;;;;;;16.88;14.02;;;435.20;2022.40;;;;;;5093182;28;20020;-74